Latest Weather Observations for Norah Head

IDN60901

Issued at 4:11 pm EST Wednesday 24 May 2017 (issued every 10 minutes, with the page automatically refreshed every 10 minutes)

About weather observations | Map of Sydney area stations | Latest observations for Sydney area | Other Formats
Station Details ID: 061366 Name: NORAH HEAD AWS Lat: -33.28 Lon: 151.58 Height: 18.8 m
Data from the previous 72 hours. | See also: Recent months at Norah Head
Date/Time
EST
Temp
°C
App
Temp
°C
Dew
Point
°C
Rel
Hum
%
Delta-T
°C
Wind Press
QNH
hPa
Press
MSL
hPa
Rain since
9am
mm
Dir  Spd
km/h
Gust
km/h
Spd
kts
Gust
kts
24/04:00pm 20.7 18.1 7.7 43 6.7 WSW 11 24 6 13 1013.4 1013.3 0.0
24/03:30pm 21.4 18.8 7.6 41 7.1 W 11 22 6 12 1013.0 1012.9 0.0
24/03:00pm 21.9 18.9 7.7 40 7.4 W 13 28 7 15 1012.6 1012.5 0.0
24/02:30pm 22.7 20.4 9.1 42 7.3 W 11 22 6 12 1012.1 1012.0 0.0
24/02:00pm 23.0 22.0 12.3 51 6.1 WNW 9 19 5 10 1012.2 1012.1 0.0
24/01:30pm 22.8 22.4 13.0 54 5.6 WNW 7 19 4 10 1012.4 1012.3 0.0
24/01:00pm 21.2 20.8 12.9 59 4.7 W 7 15 4 8 1012.6 1012.5 0.0
24/12:30pm 22.5 21.9 13.6 57 5.2 WNW 9 19 5 10 1013.1 1013.0 0.0
24/12:00pm 22.8 22.4 14.1 58 5.1 WNW 9 20 5 11 1013.3 1013.2 0.0
24/11:30am 22.3 21.6 14.2 60 4.7 NW 11 19 6 10 1013.6 1013.5 0.0
24/11:00am 21.5 20.6 13.7 61 4.5 NW 11 24 6 13 1014.2 1014.1 0.0
24/10:30am 22.2 21.7 15.8 67 3.8 NNW 13 22 7 12 1014.7 1014.6 0.0
24/10:00am 21.0 20.6 16.2 74 2.9 N 13 15 7 8 1015.1 1015.0 0.0
24/09:30am 20.1 20.7 15.7 76 2.6 NNW 7 11 4 6 1015.3 1015.2 0.0
24/09:00am 18.4 18.5 15.5 83 1.7 NNW 9 13 5 7 1015.3 1015.2 1.2
24/08:30am 17.7 18.4 16.0 90 1.0 NNW 7 11 4 6 1015.3 1015.2 1.2
24/08:00am 16.0 16.3 14.4 90 0.9 NW 6 7 3 4 1015.6 1015.5 1.2
24/07:30am 15.3 15.3 13.7 90 0.9 NW 6 9 3 5 1015.6 1015.5 1.2
24/07:00am 15.9 16.2 14.6 92 0.7 NW 6 7 3 4 1015.4 1015.3 1.2
24/06:30am 15.9 17.2 14.1 89 1.0 CALM 0 4 0 2 1015.2 1015.1 1.0
24/06:00am 15.4 14.7 14.4 94 0.6 SW 11 19 6 10 1015.3 1015.2 0.6
24/05:30am 16.3 13.3 15.8 97 0.3 NNW 26 33 14 18 1014.1 1014.0 0.6
24/05:00am 15.9 15.2 15.3 96 0.3 NNE 13 20 7 11 1013.9 1013.8 0.6
24/04:30am 15.6 15.8 14.6 94 0.6 W 7 17 4 9 1015.0 1014.9 0.4
24/04:00am 15.8 16.2 14.8 94 0.6 NNW 6 7 3 4 1014.6 1014.5 0.0
24/03:30am 15.7 16.5 14.9 95 0.5 NW 4 6 2 3 1014.6 1014.5 0.0
24/03:00am 16.1 16.2 15.5 96 0.3 NNW 9 11 5 6 1014.8 1014.7 0.0
24/02:30am 15.8 16.2 15.2 96 0.3 NW 7 9 4 5 1015.1 1015.0 0.0
24/02:00am 16.4 15.9 15.9 97 0.3 N 13 15 7 8 1015.3 1015.2 0.0
24/01:30am 16.8 16.4 16.3 97 0.3 N 13 17 7 9 1015.5 1015.4 0.0
24/01:00am 17.3 16.4 16.8 97 0.3 N 17 19 9 10 1016.0 1015.9 0.0
24/12:30am 17.4 16.5 16.8 96 0.4 N 17 19 9 10 1016.4 1016.3 0.0
24/12:00am 17.6 17.9 17.0 96 0.4 N 11 15 6 8 1016.9 1016.8 0.0
 
Date/Time
EST
Temp
°C
App
Temp
°C
Dew
Point
°C
Rel
Hum
%
Delta-T
°C
Wind Press
QNH
hPa
Press
MSL
hPa
Rain since
9am
mm
Dir  Spd
km/h
Gust
km/h
Spd
kts
Gust
kts
23/11:30pm 17.5 17.3 16.7 95 0.5 NNW 13 17 7 9 1017.3 1017.2 0.0
23/11:00pm 17.6 17.7 16.6 94 0.6 NNW 11 13 6 7 1017.5 1017.4 0.0
23/10:30pm 17.6 17.7 16.5 93 0.7 NNW 11 13 6 7 1017.7 1017.6 0.0
23/10:00pm 17.9 17.7 16.8 93 0.7 N 13 17 7 9 1017.7 1017.6 0.0
23/09:30pm 18.1 18.6 16.6 91 0.9 NNW 9 15 5 8 1017.8 1017.7 0.0
23/09:00pm 18.4 17.7 16.4 88 1.2 NNW 15 20 8 11 1017.7 1017.6 0.0
23/08:30pm 18.9 17.7 17.0 89 1.1 N 19 22 10 12 1017.8 1017.7 0.0
23/08:00pm 19.2 17.5 17.2 88 1.2 N 22 24 12 13 1017.7 1017.6 0.0
23/07:30pm 19.6 18.2 17.9 90 1.0 NNE 22 24 12 13 1017.8 1017.7 0.0
23/07:00pm 19.6 19.1 17.7 89 1.2 NNE 17 19 9 10 1017.9 1017.8 0.0
23/06:30pm 19.4 18.0 16.6 84 1.7 N 19 22 10 12 1017.9 1017.8 0.0
23/06:00pm 19.5 19.1 16.3 82 1.9 N 13 15 7 8 1017.7 1017.6 0.0
23/05:30pm 20.1 19.0 16.3 79 2.3 N 17 19 9 10 1017.6 1017.5 0.0
23/05:00pm 20.1 18.5 16.5 80 2.2 N 20 22 11 12 1017.3 1017.2 0.0
23/04:30pm 20.3 19.1 17.1 82 2.0 N 19 20 10 11 1017.3 1017.2 0.0
23/04:00pm 20.7 18.6 16.3 76 2.6 N 22 26 12 14 1017.3 1017.2 0.0
23/03:30pm 20.4 19.0 16.6 79 2.3 NNE 19 24 10 13 1017.4 1017.3 0.0
23/03:00pm 21.2 20.5 17.4 79 2.3 NE 17 19 9 10 1017.5 1017.4 0.0
23/02:30pm 21.6 20.8 17.0 75 2.8 NE 17 20 9 11 1017.5 1017.4 0.0
23/02:00pm 21.7 20.2 17.7 78 2.5 NNE 22 24 12 13 1017.7 1017.6 0.0
23/01:30pm 22.5 21.3 17.6 74 3.0 NE 20 24 11 13 1017.9 1017.8 0.0
23/01:00pm 22.4 21.2 17.1 72 3.3 NE 19 20 10 11 1018.4 1018.3 0.0
23/12:30pm 22.5 22.4 17.0 71 3.4 NNE 13 15 7 8 1018.9 1018.8 0.0
23/12:00pm 22.3 21.6 17.4 74 3.0 NE 17 20 9 11 1019.5 1019.4 0.0
23/11:30am 22.1 21.3 17.0 73 3.1 NE 17 19 9 10 1020.1 1020.0 0.0
23/11:00am 22.1 21.6 16.8 72 3.2 NE 15 17 8 9 1020.8 1020.7 0.0
23/10:30am 22.9 24.0 18.0 74 3.1 NE 9 11 5 6 1021.2 1021.1 0.0
23/10:00am 21.1 22.4 17.1 78 2.4 N 6 7 3 4 1021.6 1021.5 0.0
23/09:30am 19.9 21.2 17.1 84 1.7 NNE 6 7 3 4 1021.9 1021.8 0.0
23/09:00am 19.9 21.1 16.9 83 1.8 N 6 7 3 4 1022.0 1021.9 0.0
23/08:30am 18.4 20.2 16.4 88 1.2 NW 2 6 1 3 1022.2 1022.1 0.0
23/08:00am 17.5 18.4 16.0 91 0.9 NW 6 9 3 5 1022.0 1021.9 0.0
23/07:30am 17.2 18.8 15.9 92 0.8 NW 2 6 1 3 1021.8 1021.7 0.0
23/07:00am 17.1 18.6 15.8 92 0.8 SSW 2 4 1 2 1021.4 1021.3 0.0
23/06:30am 16.8 17.7 15.2 90 0.9 NW 4 6 2 3 1021.1 1021.0 0.0
23/06:00am 17.3 18.0 15.6 90 1.0 NNW 6 9 3 5 1020.9 1020.8 0.0
23/05:30am 17.0 17.4 15.2 89 1.0 NW 7 11 4 6 1020.8 1020.7 0.0
23/05:00am 17.1 17.1 15.1 88 1.2 WNW 9 13 5 7 1020.8 1020.7 0.0
23/04:30am 16.9 17.2 15.1 89 1.0 WNW 7 11 4 6 1020.7 1020.6 0.0
23/04:00am 16.8 17.0 14.8 88 1.1 WNW 7 9 4 5 1020.8 1020.7 0.0
23/03:30am 16.9 17.6 14.5 86 1.4 WNW 4 6 2 3 1020.9 1020.8 0.0
23/03:00am 17.4 18.2 14.7 84 1.6 NNW 4 4 2 2 1021.1 1021.0 0.0
23/02:30am 17.7 18.6 15.0 84 1.6 WNW 4 6 2 3 1021.1 1021.0 0.0
23/02:00am 17.8 18.3 14.9 83 1.7 WNW 6 9 3 5 1021.4 1021.3 0.0
23/01:30am 17.9 18.2 15.0 83 1.7 WNW 7 9 4 5 1021.6 1021.5 0.0
23/01:00am 18.3 18.9 15.2 82 1.8 NW 6 9 3 5 1021.8 1021.7 0.0
23/12:30am 18.6 19.3 15.5 82 1.8 NW 6 7 3 4 1022.1 1022.0 0.0
23/12:00am 19.0 18.8 15.7 81 1.9 NNW 11 17 6 9 1022.3 1022.2 0.0
 
Date/Time
EST
Temp
°C
App
Temp
°C
Dew
Point
°C
Rel
Hum
%
Delta-T
°C
Wind Press
QNH
hPa
Press
MSL
hPa
Rain since
9am
mm
Dir  Spd
km/h
Gust
km/h
Spd
kts
Gust
kts
22/11:30pm 19.3 17.4 15.8 80 2.1 NE 20 22 11 12 1022.3 1022.2 0.0
22/11:00pm 19.2 17.9 15.7 80 2.1 NE 17 20 9 11 1022.6 1022.5 0.0
22/10:30pm 19.3 17.9 15.6 79 2.2 NE 17 19 9 10 1022.9 1022.8 0.0
22/10:00pm 19.1 17.7 15.6 80 2.1 NE 17 20 9 11 1023.0 1022.9 0.0
22/09:30pm 19.2 18.2 15.5 79 2.2 ENE 15 19 8 10 1022.9 1022.8 0.0
22/09:00pm 19.1 17.6 15.2 78 2.3 ENE 17 20 9 11 1022.7 1022.6 0.0
22/08:30pm 19.3 18.2 15.2 77 2.4 ENE 15 17 8 9 1022.8 1022.7 0.0
22/08:00pm 19.5 17.8 14.7 74 2.8 ENE 17 19 9 10 1022.7 1022.6 0.0
22/07:30pm 19.6 18.4 15.0 75 2.7 E 15 19 8 10 1022.6 1022.5 0.0
22/07:00pm 19.4 18.5 14.9 75 2.6 E 13 17 7 9 1022.6 1022.5 0.0
22/06:30pm 19.4 18.4 14.6 74 2.8 E 13 17 7 9 1022.3 1022.2 0.0
22/06:00pm 19.5 18.7 15.2 76 2.5 ESE 13 17 7 9 1022.1 1022.0 0.0
22/05:30pm 19.5 18.7 15.0 75 2.6 ESE 13 17 7 9 1022.0 1021.9 0.0
22/05:00pm 19.4 18.4 14.6 74 2.8 ESE 13 17 7 9 1021.9 1021.8 0.0
22/04:30pm 19.6 18.9 15.5 77 2.4 SE 13 15 7 8 1021.8 1021.7 0.0
22/04:00pm 19.6 18.8 15.0 75 2.7 SE 13 15 7 8 1021.8 1021.7 0.0
22/03:30pm 19.6 18.6 14.6 73 2.9 SE 13 17 7 9 1021.6 1021.5 0.0
22/03:00pm 19.7 19.0 16.3 81 2.0 S 15 19 8 10 1021.7 1021.6 0.0
22/02:30pm 19.8 18.9 16.8 83 1.8 S 17 20 9 11 1021.9 1021.8 0.0
22/02:00pm 20.0 18.7 16.8 82 1.9 S 19 22 10 12 1021.9 1021.8 0.0
22/01:30pm 19.5 18.9 16.7 84 1.7 SSW 15 19 8 10 1022.1 1022.0 0.0
22/01:00pm 19.9 19.0 16.9 83 1.8 SSW 17 20 9 11 1022.1 1022.0 0.0
22/12:30pm 19.6 19.1 16.8 84 1.7 SSW 15 19 8 10 1022.4 1022.3 0.0
22/12:00pm 19.7 19.2 16.9 84 1.7 SSW 15 17 8 9 1022.9 1022.8 0.0
22/11:30am 19.5 19.1 17.1 86 1.5 SSW 15 20 8 11 1023.2 1023.1 0.0
22/11:00am 19.1 19.3 16.7 86 1.4 SSW 11 17 6 9 1023.7 1023.6 0.0
22/10:30am 18.8 19.2 16.2 85 1.6 SW 9 13 5 7 1024.0 1023.9 0.0
22/10:00am 18.4 18.2 15.8 85 1.5 SSW 11 15 6 8 1024.1 1024.0 0.0
22/09:30am 18.4 19.3 16.2 87 1.3 WSW 6 9 3 5 1024.2 1024.1 0.0
22/09:00am 17.7 18.4 16.0 90 1.0 WSW 7 11 4 6 1024.1 1024.0 0.0
22/08:30am 16.6 16.7 15.6 94 0.6 WSW 9 13 5 7 1023.9 1023.8 0.0
22/08:00am 16.1 15.7 15.3 95 0.5 W 11 15 6 8 1023.7 1023.6 0.0
22/07:30am 16.1 15.7 15.3 95 0.5 WSW 11 15 6 8 1023.3 1023.2 0.0
22/07:00am 15.6 14.8 15.0 96 0.3 WSW 13 17 7 9 1023.1 1023.0 0.0
22/06:30am 15.7 14.9 15.2 97 0.3 WSW 13 17 7 9 1022.9 1022.8 0.0
22/06:00am 15.9 15.5 15.3 96 0.3 WSW 11 15 6 8 1022.7 1022.6 0.0
22/05:30am 16.1 15.9 15.6 97 0.3 SW 11 15 6 8 1022.2 1022.1 0.0
22/05:00am 15.7 14.9 15.2 97 0.3 WSW 13 17 7 9 1022.1 1022.0 0.0
22/04:30am 15.8 15.4 15.3 97 0.3 W 11 15 6 8 1022.1 1022.0 0.0
22/04:00am 16.2 16.3 15.4 95 0.5 WSW 9 13 5 7 1021.8 1021.7 0.0
22/03:30am 16.6 16.4 15.8 95 0.5 SW 11 15 6 8 1021.7 1021.6 0.0
22/03:00am 16.7 16.1 15.7 94 0.6 WSW 13 17 7 9 1021.6 1021.5 0.0
22/02:30am 17.0 16.5 16.0 94 0.6 SW 13 19 7 10 1021.6 1021.5 0.0
22/02:00am 16.4 16.1 15.4 94 0.6 WSW 11 13 6 7 1021.8 1021.7 0.0
22/01:30am 16.9 16.7 15.8 93 0.6 WSW 11 13 6 7 1021.9 1021.8 0.0
22/01:00am 17.4 17.5 15.6 89 1.1 SW 9 13 5 7 1021.9 1021.8 0.0
22/12:30am 17.4 17.7 15.9 91 0.9 SW 9 13 5 7 1021.9 1021.8 0.0
22/12:00am 17.2 16.9 15.5 90 1.0 SW 11 15 6 8 1022.0 1021.9 0.0
 
Date/Time
EST
Temp
°C
App
Temp
°C
Dew
Point
°C
Rel
Hum
%
Delta-T
°C
Wind Press
QNH
hPa
Press
MSL
hPa
Rain since
9am
mm
Dir  Spd
km/h
Gust
km/h
Spd
kts
Gust
kts
21/11:30pm 16.9 17.2 14.9 88 1.2 SW 7 11 4 6 1022.1 1022.0 0.0
21/11:00pm 17.3 17.9 15.3 88 1.2 SW 6 9 3 5 1022.1 1022.0 0.0
21/10:30pm 17.8 18.2 15.2 85 1.5 SW 7 9 4 5 1022.1 1022.0 0.0
21/10:00pm 18.0 18.3 15.1 83 1.7 SSW 7 13 4 7 1022.0 1021.9 0.0
21/09:30pm 18.3 18.7 15.4 83 1.7 SW 7 13 4 7 1022.1 1022.0 0.0
21/09:00pm 18.8 18.5 15.5 81 1.9 SSE 11 17 6 9 1021.9 1021.8 0.0
21/08:30pm 18.7 18.4 15.4 81 1.9 SSE 11 15 6 8 1021.8 1021.7 0.0
21/08:00pm 18.8 18.1 15.5 81 1.9 SSE 13 15 7 8 1021.6 1021.5 0.0
21/07:30pm 18.9 17.5 15.6 81 1.9 SSE 17 20 9 11 1021.2 1021.1 0.0
21/07:00pm 19.0 17.5 15.3 79 2.2 SSE 17 20 9 11 1021.2 1021.1 0.0
21/06:30pm 18.8 16.5 14.7 77 2.4 SSE 20 22 11 12 1020.7 1020.6 0.0
21/06:00pm 19.4 17.3 15.1 76 2.5 S 20 24 11 13 1020.5 1020.4 0.0
21/05:30pm 19.1 17.0 14.6 75 2.6 S 19 22 10 12 1020.1 1020.0 0.0
21/05:00pm 18.8 16.5 14.1 74 2.7 S 19 22 10 12 1019.8 1019.7 0.0
21/04:30pm 18.9 16.7 14.4 75 2.6 S 19 22 10 12 1019.5 1019.4 0.0

Latest Capital City Observations: Canberra | Sydney | Melbourne | Brisbane | Adelaide | Perth | Hobart | Darwin

Other Formats:

Comma delimited format used in spreadsheet applications
http://www.bom.gov.au/fwo/IDN60901/IDN60901.95770.axf

JavaScript Object Notation format (JSON) in row-major order
http://www.bom.gov.au/fwo/IDN60901/IDN60901.95770.json